Time;durP1;ratioP1;P1;durP2;ratioP2;P2;SDS_P1;SDS_P2;PMS_P1;PMS_P2;Temp;Humidity;BMP_temperature;BMP_pressure;BME280_temperature;BME280_humidity;BME280_pressure;Samples;Min_cycle;Max_cycle;Signal;HPM_P1;HPM_P2
2021/11/03 00:01:41;;;;;;;17.42;12.02;;;;;;;1.89;100.00;100171.13;5052407;28;20500;-75
2021/11/03 00:04:08;;;;;;;17.15;10.40;;;;;;;1.84;100.00;100181.91;5051928;28;20044;-76
2021/11/03 00:06:34;;;;;;;16.13;9.90;;;;;;;1.83;100.00;100182.03;5050757;28;20056;-75
2021/11/03 00:09:03;;;;;;;18.10;10.50;;;;;;;1.81;100.00;100183.88;5051160;28;20029;-75
2021/11/03 00:11:30;;;;;;;16.98;11.18;;;;;;;1.88;100.00;100190.41;5051753;28;20151;-75
2021/11/03 00:13:55;;;;;;;29.50;14.35;;;;;;;1.98;100.00;100188.88;5052229;28;20499;-75
2021/11/03 00:16:21;;;;;;;20.73;11.85;;;;;;;2.02;100.00;100194.78;5051838;28;20111;-76
2021/11/03 00:18:46;;;;;;;14.10;10.02;;;;;;;2.07;100.00;100193.53;5052187;28;20079;-75
2021/11/03 00:21:12;;;;;;;21.67;12.20;;;;;;;2.13;100.00;100183.59;5050579;28;20033;-75
2021/11/03 00:23:38;;;;;;;19.25;11.35;;;;;;;2.20;100.00;100179.63;5052096;28;20033;-76
2021/11/03 00:26:03;;;;;;;33.88;15.85;;;;;;;2.28;100.00;100195.69;5051996;28;20091;-76
2021/11/03 00:28:29;;;;;;;35.08;17.73;;;;;;;2.42;100.00;100193.00;5051630;28;20400;-75
2021/11/03 00:30:56;;;;;;;25.80;13.40;;;;;;;2.61;100.00;100207.50;5051954;28;20039;-76
2021/11/03 00:33:24;;;;;;;21.52;13.20;;;;;;;2.85;100.00;100223.38;5051617;28;20037;-76
2021/11/03 00:35:49;;;;;;;28.05;15.25;;;;;;;3.06;100.00;100229.00;5051955;28;20461;-75
2021/11/03 00:38:14;;;;;;;34.60;16.83;;;;;;;3.23;100.00;100211.22;5051536;28;20033;-76
2021/11/03 00:40:41;;;;;;;28.98;16.75;;;;;;;3.37;100.00;100223.38;5051839;28;20032;-76
2021/11/03 00:43:07;;;;;;;28.65;17.05;;;;;;;3.44;100.00;100222.00;5051920;28;20540;-76
2021/11/03 00:45:32;;;;;;;27.73;15.65;;;;;;;3.51;100.00;100210.94;5033736;28;20067;-75
2021/11/03 00:47:58;;;;;;;26.17;16.58;;;;;;;3.57;100.00;100214.94;5051943;28;20029;-76
2021/11/03 00:50:24;;;;;;;26.33;15.57;;;;;;;3.61;100.00;100213.72;5051405;28;20037;-76
2021/11/03 00:52:49;;;;;;;25.67;15.93;;;;;;;3.65;100.00;100215.22;5051745;28;20029;-75
2021/11/03 00:55:15;;;;;;;23.98;15.05;;;;;;;3.68;100.00;100216.78;5051360;28;20041;-75
2021/11/03 00:57:41;;;;;;;25.77;14.73;;;;;;;3.70;100.00;100215.72;5051818;28;20029;-75
2021/11/03 01:00:08;;;;;;;27.75;15.85;;;;;;;3.75;100.00;100222.44;5053035;28;20480;-76
2021/11/03 01:02:34;;;;;;;24.70;14.48;;;;;;;3.78;100.00;100209.91;5054886;28;20040;-75
2021/11/03 01:05:00;;;;;;;33.75;17.58;;;;;;;3.85;100.00;100215.56;5054097;28;20029;-75
2021/11/03 01:07:25;;;;;;;41.22;20.77;;;;;;;3.93;100.00;100209.75;5054721;28;20032;-76
2021/11/03 01:09:51;;;;;;;35.58;19.48;;;;;;;3.97;100.00;100209.44;5053830;28;20044;-75
2021/11/03 01:12:16;;;;;;;35.50;19.77;;;;;;;4.01;100.00;100202.13;5054754;28;20032;-75
2021/11/03 01:14:42;;;;;;;46.55;22.52;;;;;;;4.05;100.00;100201.78;5055218;28;20087;-75
2021/11/03 01:17:07;;;;;;;35.38;19.83;;;;;;;4.08;100.00;100207.81;5055090;28;20029;-75
2021/11/03 01:19:33;;;;;;;37.22;19.80;;;;;;;4.08;100.00;100205.16;5054495;28;20040;-75
2021/11/03 01:22:00;;;;;;;36.78;20.30;;;;;;;4.06;100.00;100207.88;5054971;28;20048;-75
2021/11/03 01:24:26;;;;;;;38.13;20.58;;;;;;;4.06;100.00;100207.88;5054849;28;20033;-75
2021/11/03 01:26:51;;;;;;;50.00;23.67;;;;;;;4.08;100.00;100200.75;5054836;28;20138;-75
2021/11/03 01:29:17;;;;;;;43.35;22.63;;;;;;;4.12;100.00;100202.19;5053432;28;20069;-75
2021/11/03 01:31:42;;;;;;;47.97;22.30;;;;;;;4.14;100.00;100202.91;5054801;28;20106;-75
2021/11/03 01:34:07;;;;;;;50.20;23.45;;;;;;;4.19;100.00;100205.22;5054897;28;20423;-75
2021/11/03 01:36:33;;;;;;;52.13;24.88;;;;;;;4.21;100.00;100203.28;5054001;28;20434;-75
2021/11/03 01:38:59;;;;;;;48.63;23.80;;;;;;;4.23;100.00;100209.28;5054849;28;20456;-76
2021/11/03 01:41:25;;;;;;;53.55;24.45;;;;;;;4.26;100.00;100213.50;5053112;28;20492;-76
2021/11/03 01:46:37;;;;;;;52.67;24.27;;;;;;;4.33;100.00;100194.50;5052267;28;20216;-75
2021/11/03 01:49:14;;;;;;;55.05;24.77;;;;;;;4.36;100.00;100198.66;5054369;28;20029;-78
2021/11/03 01:51:55;;;;;;;42.33;20.98;;;;;;;4.39;100.00;100185.31;5054003;28;20041;-76
2021/11/03 01:54:29;;;;;;;38.10;18.00;;;;;;;4.41;100.00;100189.47;5053970;28;20035;-76
2021/11/03 01:56:56;;;;;;;33.95;15.15;;;;;;;4.45;100.00;100190.09;5054527;28;20469;-79
2021/11/03 01:59:27;;;;;;;23.42;11.93;;;;;;;4.47;100.00;100190.00;5053712;28;20519;-74
2021/11/03 02:01:53;;;;;;;22.55;8.50;;;;;;;4.50;100.00;100195.03;5054142;28;20036;-76
2021/11/03 02:04:19;;;;;;;15.68;7.90;;;;;;;4.54;100.00;100197.31;5053746;28;20033;-76
2021/11/03 02:06:45;;;;;;;14.57;7.70;;;;;;;4.55;100.00;100195.50;5054088;28;20028;-79
2021/11/03 02:09:11;;;;;;;14.88;7.70;;;;;;;4.56;100.00;100192.75;5054053;28;20154;-77
2021/11/03 02:11:37;;;;;;;12.43;6.63;;;;;;;4.57;100.00;100190.97;5053404;28;20025;-78
2021/11/03 02:14:05;;;;;;;10.88;6.10;;;;;;;4.57;100.00;100185.69;5054109;28;20082;-79
2021/11/03 02:16:35;;;;;;;9.57;5.95;;;;;;;4.56;100.00;100192.75;5053208;28;20472;-78
2021/11/03 02:19:08;;;;;;;11.95;6.15;;;;;;;4.56;100.00;100190.13;5054140;28;20099;-78
2021/11/03 02:21:50;;;;;;;14.40;6.60;;;;;;;4.57;100.00;100190.97;5053500;28;20033;-78
2021/11/03 02:24:25;;;;;;;13.77;7.30;;;;;;;4.58;100.00;100187.38;5054069;28;20025;-78
2021/11/03 02:26:51;;;;;;;17.17;7.63;;;;;;;4.58;100.00;100188.22;5053827;28;20033;-78
2021/11/03 02:29:20;;;;;;;14.18;8.07;;;;;;;4.59;100.00;100183.78;5053952;28;20040;-78
2021/11/03 02:31:50;;;;;;;17.77;9.55;;;;;;;4.63;100.00;100181.75;5053458;28;20424;-78
2021/11/03 02:34:26;;;;;;;20.27;10.20;;;;;;;4.63;100.00;100173.84;5053802;28;20040;-79
2021/11/03 02:36:59;;;;;;;26.13;10.85;;;;;;;4.62;100.00;100180.91;5053657;28;20075;-79
2021/11/03 02:39:38;;;;;;;21.95;10.80;;;;;;;4.62;100.00;100177.44;5053060;28;20037;-79
2021/11/03 02:42:04;;;;;;;25.60;12.13;;;;;;;4.57;100.00;100181.25;5053793;28;20032;-79
2021/11/03 02:44:33;;;;;;;22.40;11.35;;;;;;;4.56;100.00;100176.94;5052914;28;20163;-79
2021/11/03 02:46:58;;;;;;;21.73;11.85;;;;;;;4.55;100.00;100171.78;5035866;28;20040;-79
2021/11/03 02:49:24;;;;;;;24.92;12.88;;;;;;;4.53;100.00;100168.44;5053028;28;20453;-79
2021/11/03 02:51:49;;;;;;;27.67;13.52;;;;;;;4.51;100.00;100168.56;5053306;28;20040;-79
2021/11/03 02:54:19;;;;;;;26.10;12.65;;;;;;;4.49;100.00;100164.34;5053369;28;20091;-79
2021/11/03 02:56:53;;;;;;;26.25;12.98;;;;;;;4.45;100.00;100170.81;5052630;28;20031;-79
2021/11/03 02:59:22;;;;;;;29.30;13.68;;;;;;;4.39;100.00;100166.88;5053344;28;20021;-79
2021/11/03 03:01:51;;;;;;;30.60;13.65;;;;;;;4.34;100.00;100167.19;5053187;28;20029;-79
2021/11/03 03:04:20;;;;;;;30.58;14.93;;;;;;;4.31;100.00;100158.69;5052977;28;20536;-79
2021/11/03 03:06:47;;;;;;;24.33;14.10;;;;;;;4.27;100.00;100160.72;5052545;28;20120;-79
2021/11/03 03:09:15;;;;;;;23.67;14.13;;;;;;;4.18;100.00;100162.25;5053329;28;20104;-79
2021/11/03 03:11:44;;;;;;;34.17;14.68;;;;;;;4.11;100.00;100152.28;5052526;28;20127;-79
2021/11/03 03:14:10;;;;;;;24.63;14.77;;;;;;;4.02;100.00;100159.06;5052984;28;20032;-79
2021/11/03 03:16:35;;;;;;;32.38;15.82;;;;;;;3.92;100.00;100151.00;5052385;28;20099;-78
2021/11/03 03:19:02;;;;;;;30.60;16.33;;;;;;;3.86;100.00;100152.28;5053101;28;20477;-79
2021/11/03 03:21:28;;;;;;;35.50;16.92;;;;;;;3.80;100.00;100155.38;5052442;28;20037;-78
2021/11/03 03:23:55;;;;;;;32.67;17.30;;;;;;;3.71;100.00;100153.41;5052565;28;20033;-79
2021/11/03 03:26:21;;;;;;;33.90;16.83;;;;;;;3.62;100.00;100148.81;5034878;28;20066;-79
2021/11/03 03:28:48;;;;;;;26.95;15.50;;;;;;;3.51;100.00;100150.44;5052167;28;20366;-78
2021/11/03 03:31:14;;;;;;;28.13;15.55;;;;;;;3.42;100.00;100142.34;5052729;28;20033;-78
2021/11/03 03:33:41;;;;;;;32.67;16.45;;;;;;;3.33;100.00;100144.72;5052226;28;20040;-78
2021/11/03 03:36:07;;;;;;;29.38;15.68;;;;;;;3.21;100.00;100147.34;5052628;28;20039;-79
2021/11/03 03:38:32;;;;;;;31.92;15.82;;;;;;;3.11;100.00;100141.94;5052429;28;20384;-78
2021/11/03 03:40:59;;;;;;;31.30;17.23;;;;;;;3.02;100.00;100148.66;5052703;28;20396;-78
2021/11/03 03:43:24;;;;;;;59.25;20.00;;;;;;;2.94;100.00;100149.19;5052588;28;20033;-79
2021/11/03 03:45:50;;;;;;;39.60;18.65;;;;;;;2.86;100.00;100148.06;5052433;28;20064;-78
2021/11/03 03:48:15;;;;;;;46.60;19.70;;;;;;;2.79;100.00;100152.88;5052750;28;20032;-78
2021/11/03 03:50:41;;;;;;;37.08;18.60;;;;;;;2.75;100.00;100149.63;5052540;28;20299;-78
2021/11/03 03:53:07;;;;;;;36.58;18.27;;;;;;;2.70;100.00;100158.75;5052453;28;20443;-79
2021/11/03 03:55:33;;;;;;;40.22;18.00;;;;;;;2.62;100.00;100152.25;5052060;28;20025;-78
2021/11/03 03:57:58;;;;;;;31.15;16.65;;;;;;;2.56;100.00;100162.34;5052317;28;20040;-79
2021/11/03 04:00:25;;;;;;;41.78;18.77;;;;;;;2.50;100.00;100168.00;5052417;28;20419;-78
2021/11/03 04:02:52;;;;;;;35.90;17.38;;;;;;;2.45;100.00;100158.66;5052113;28;20025;-78
2021/11/03 04:05:19;;;;;;;30.80;16.23;;;;;;;2.42;100.00;100171.16;5052576;28;20025;-78
2021/11/03 04:07:44;;;;;;;30.50;15.32;;;;;;;2.37;100.00;100174.06;5052047;28;20036;-78
2021/11/03 04:10:12;;;;;;;34.88;16.80;;;;;;;2.33;100.00;100169.13;5052544;28;20033;-78
2021/11/03 04:12:38;;;;;;;34.88;16.95;;;;;;;2.28;100.00;100182.56;5052026;28;20060;-78
2021/11/03 04:15:06;;;;;;;41.00;18.77;;;;;;;2.24;100.00;100178.44;5052327;28;20032;-78
2021/11/03 04:17:31;;;;;;;33.20;17.05;;;;;;;2.18;100.00;100184.13;5052299;28;20044;-76
2021/11/03 04:19:57;;;;;;;32.05;16.80;;;;;;;2.12;100.00;100193.25;5052312;28;20029;-78
2021/11/03 04:22:22;;;;;;;48.95;20.63;;;;;;;2.10;100.00;100189.88;5052206;28;20033;-78
2021/11/03 04:24:48;;;;;;;43.13;20.95;;;;;;;2.04;100.00;100185.84;5052169;28;20037;-78
2021/11/03 04:27:13;;;;;;;40.20;18.63;;;;;;;2.01;100.00;100185.22;5052281;28;20078;-78
2021/11/03 04:29:38;;;;;;;42.25;19.40;;;;;;;1.96;100.00;100195.16;5051711;28;20054;-78
2021/11/03 04:32:04;;;;;;;40.08;17.77;;;;;;;1.92;100.00;100191.91;5052312;28;20610;-79
2021/11/03 04:34:30;;;;;;;34.80;16.65;;;;;;;1.88;100.00;100199.16;5052607;28;20040;-78
2021/11/03 04:36:55;;;;;;;37.88;17.85;;;;;;;1.87;100.00;100199.25;5055436;28;20076;-78
2021/11/03 04:39:21;;;;;;;56.60;23.55;;;;;;;1.84;100.00;100202.06;5055814;28;20040;-78
2021/11/03 04:41:46;;;;;;;53.38;21.60;;;;;;;1.81;100.00;100212.72;5055277;28;20488;-78
2021/11/03 04:44:12;;;;;;;45.97;20.17;;;;;;;1.78;100.00;100208.56;5055407;28;20040;-78
2021/11/03 04:46:38;;;;;;;45.80;20.90;;;;;;;1.72;100.00;100217.66;5055105;28;20108;-78
2021/11/03 04:49:05;;;;;;;69.32;25.80;;;;;;;1.73;100.00;100211.47;5055738;28;20035;-78
2021/11/03 04:51:30;;;;;;;50.75;21.10;;;;;;;1.73;100.00;100208.84;5055595;28;20043;-78
2021/11/03 04:53:55;;;;;;;57.70;22.17;;;;;;;1.75;100.00;100214.00;5055225;28;20033;-77
2021/11/03 04:56:22;;;;;;;55.03;21.80;;;;;;;1.74;100.00;100207.06;5037656;28;20033;-78
2021/11/03 04:58:51;;;;;;;48.38;21.40;;;;;;;1.68;100.00;100210.91;5054814;28;20056;-78
2021/11/03 05:01:20;;;;;;;48.70;20.85;;;;;;;1.62;100.00;100218.34;5055812;28;20473;-78
2021/11/03 05:03:50;;;;;;;34.45;15.95;;;;;;;1.53;100.00;100215.34;5054612;28;20366;-78
2021/11/03 05:06:18;;;;;;;67.78;23.77;;;;;;;1.49;100.00;100218.25;5055494;28;20029;-78
2021/11/03 05:08:44;;;;;;;43.17;18.58;;;;;;;1.46;100.00;100224.50;5054783;28;20469;-77
2021/11/03 05:11:09;;;;;;;46.90;20.55;;;;;;;1.43;100.00;100227.34;5055115;28;20086;-77
2021/11/03 05:13:35;;;;;;;35.78;16.50;;;;;;;1.37;100.00;100230.34;5055042;28;20057;-77
2021/11/03 05:16:01;;;;;;;51.90;21.55;;;;;;;1.33;100.00;100227.06;5054515;28;20040;-78
2021/11/03 05:18:27;;;;;;;52.30;21.60;;;;;;;1.33;100.00;100227.06;5055424;28;20373;-78
2021/11/03 05:20:52;;;;;;;50.15;20.58;;;;;;;1.35;100.00;100222.56;5054538;28;20025;-77
2021/11/03 05:23:18;;;;;;;38.88;18.52;;;;;;;1.39;100.00;100216.22;5054923;28;20068;-77
2021/11/03 05:25:43;;;;;;;40.38;18.88;;;;;;;1.41;100.00;100221.34;5054573;28;20092;-77
2021/11/03 05:28:10;;;;;;;45.53;19.85;;;;;;;1.40;100.00;100220.53;5054692;28;20029;-78
2021/11/03 05:30:36;;;;;;;54.40;21.67;;;;;;;1.40;100.00;100220.53;5054764;28;20488;-78
2021/11/03 05:33:01;;;;;;;53.53;22.63;;;;;;;1.39;100.00;100228.47;5054346;28;20029;-78
2021/11/03 05:35:27;;;;;;;27.70;14.90;;;;;;;1.35;100.00;100233.06;5054804;28;20048;-78
2021/11/03 05:37:53;;;;;;;50.40;20.80;;;;;;;1.33;100.00;100245.44;5054195;28;20527;-78
2021/11/03 05:40:24;;;;;;;48.92;21.85;;;;;;;1.34;100.00;100236.59;5054571;28;20059;-78
2021/11/03 05:42:50;;;;;;;;;;;;;;;1.41;100.00;100230.03;5054515;28;20044;-78
2021/11/03 05:45:16;;;;;;;83.22;29.58;;;;;;;1.52;100.00;100233.78;5054131;28;19920;-78
2021/11/03 05:47:41;;;;;;;67.05;26.40;;;;;;;1.55;100.00;100230.97;5054224;28;20029;-76
2021/11/03 05:50:09;;;;;;;63.50;27.52;;;;;;;1.54;100.00;100234.56;5054845;28;20056;-79
2021/11/03 05:52:35;;;;;;;67.35;28.48;;;;;;;1.52;100.00;100233.78;5054453;28;20476;-79
2021/11/03 05:55:00;;;;;;;57.47;26.13;;;;;;;1.48;100.00;100230.53;5054008;28;20044;-79
2021/11/03 05:57:28;;;;;;;51.97;24.13;;;;;;;1.47;100.00;100233.25;5054138;28;20059;-78
2021/11/03 05:59:55;;;;;;;52.35;25.38;;;;;;;1.45;100.00;100240.34;5053705;28;20040;-79
2021/11/03 06:02:21;;;;;;;47.92;22.70;;;;;;;1.43;100.00;100242.22;5054223;28;20033;-79
2021/11/03 06:04:47;;;;;;;56.05;24.23;;;;;;;1.41;100.00;100239.69;5053752;28;20052;-79
2021/11/03 06:07:14;;;;;;;50.00;22.88;;;;;;;1.38;100.00;100239.91;5054074;28;20087;-79
2021/11/03 06:09:40;;;;;;;60.80;27.42;;;;;;;1.36;100.00;100244.41;5054137;28;20039;-79
2021/11/03 06:12:07;;;;;;;41.85;19.50;;;;;;;1.31;100.00;100249.91;5053494;28;20362;-79
2021/11/03 06:14:33;;;;;;;44.08;21.27;;;;;;;1.24;100.00;100246.00;5052895;28;20091;-79
2021/11/03 06:16:58;;;;;;;34.65;17.17;;;;;;;1.16;100.00;100240.38;5053285;28;20469;-79
2021/11/03 06:19:25;;;;;;;47.05;22.75;;;;;;;1.09;100.00;100234.66;5053970;28;20075;-79
2021/11/03 06:21:51;;;;;;;41.90;20.70;;;;;;;1.04;100.00;100239.31;5053308;28;20037;-79
2021/11/03 06:24:16;;;;;;;81.63;33.85;;;;;;;1.02;100.00;100243.81;5053778;28;20036;-82
2021/11/03 06:26:42;;;;;;;62.13;28.02;;;;;;;0.99;100.00;100234.38;5053584;28;20119;-80
2021/11/03 06:29:07;;;;;;;68.90;30.08;;;;;;;0.99;100.00;100236.16;5053299;28;20033;-82
2021/11/03 06:31:35;;;;;;;72.13;29.67;;;;;;;0.97;100.00;100232.75;5053864;28;20435;-79
2021/11/03 06:34:02;;;;;;;60.05;24.30;;;;;;;0.94;100.00;100240.81;5053106;28;20036;-82
2021/11/03 06:36:27;;;;;;;60.45;26.38;;;;;;;0.91;100.00;100236.63;5053369;28;20029;-83
2021/11/03 06:38:53;;;;;;;53.05;23.17;;;;;;;0.86;100.00;100230.78;5049681;28;20425;-88
2021/11/03 06:41:20;;;;;;;48.15;21.05;;;;;;;0.84;100.00;100237.91;5031185;28;20048;-87
2021/11/03 06:43:46;;;;;;;62.20;27.02;;;;;;;0.81;100.00;100232.88;5030970;28;20033;-87
2021/11/03 06:46:12;;;;;;;44.47;22.25;;;;;;;0.78;100.00;100233.88;5012485;28;20468;-84
2021/11/03 06:48:38;;;;;;;74.15;30.23;;;;;;;0.77;100.00;100242.66;5031115;28;20502;-87
2021/11/03 06:51:03;;;;;;;51.10;23.45;;;;;;;0.76;100.00;100243.63;5029812;28;20029;-83
2021/11/03 06:53:29;;;;;;;51.97;22.98;;;;;;;0.74;100.00;100236.78;5030726;28;20033;-87
2021/11/03 06:55:55;;;;;;;57.03;26.48;;;;;;;0.73;100.00;100245.56;5029935;28;20075;-79
2021/11/03 06:58:23;;;;;;;51.58;23.88;;;;;;;0.68;100.00;100240.59;5033468;28;20033;-82
2021/11/03 07:00:50;;;;;;;52.30;24.90;;;;;;;0.70;100.00;100238.72;5030494;28;20065;-81
2021/11/03 07:03:16;;;;;;;59.90;25.48;;;;;;;0.74;100.00;100242.00;5030152;28;20037;-83
2021/11/03 07:05:45;;;;;;;58.95;28.05;;;;;;;0.77;100.00;100239.22;5030443;28;20033;-83
2021/11/03 07:08:11;;;;;;;53.08;24.67;;;;;;;0.78;100.00;100239.13;5029812;28;20041;-83
2021/11/03 07:10:43;;;;;;;63.70;28.90;;;;;;;0.82;100.00;100237.16;5030148;28;20034;-82
2021/11/03 07:13:09;;;;;;;91.80;35.67;;;;;;;0.85;100.00;100229.09;5030173;28;20029;-83
2021/11/03 07:15:35;;;;;;;95.80;35.88;;;;;;;0.87;100.00;100237.72;5030058;28;20040;-87
2021/11/03 07:18:03;;;;;;;62.53;28.60;;;;;;;0.89;100.00;100233.22;5030051;28;20030;-85
2021/11/03 07:20:28;;;;;;;53.47;25.48;;;;;;;0.92;100.00;100230.44;5030086;28;20543;-80
2021/11/03 07:22:54;;;;;;;68.15;31.20;;;;;;;0.93;100.00;100239.97;5029792;28;20117;-80
2021/11/03 07:25:22;;;;;;;63.70;29.70;;;;;;;0.93;100.00;100237.34;5030157;28;20045;-83
2021/11/03 07:27:50;;;;;;;63.13;28.63;;;;;;;0.93;100.00;100247.84;5030020;28;20037;-83
2021/11/03 07:30:17;;;;;;;66.70;31.85;;;;;;;0.97;100.00;100251.09;5029859;28;20030;-84
2021/11/03 07:32:42;;;;;;;79.55;33.22;;;;;;;0.97;100.00;100246.72;5029910;28;20038;-83
2021/11/03 07:35:08;;;;;;;64.28;30.10;;;;;;;0.97;100.00;100256.34;5029472;28;20029;-80
2021/11/03 07:37:34;;;;;;;65.78;29.88;;;;;;;0.95;100.00;100253.81;5029663;28;20200;-84
2021/11/03 07:40:00;;;;;;;69.35;30.77;;;;;;;0.96;100.00;100250.28;5029381;28;20033;-86
2021/11/03 07:42:25;;;;;;;77.47;33.20;;;;;;;0.99;100.00;100252.69;5029822;28;20029;-80
2021/11/03 07:44:51;;;;;;;76.80;33.45;;;;;;;1.01;100.00;100258.69;5029913;28;20049;-83
2021/11/03 07:47:17;;;;;;;75.32;32.55;;;;;;;1.08;100.00;100259.19;5029380;28;20037;-79
2021/11/03 07:49:42;;;;;;;81.20;33.58;;;;;;;1.13;100.00;100258.91;5030109;28;20112;-83
2021/11/03 07:52:08;;;;;;;81.47;33.20;;;;;;;1.16;100.00;100263.94;5029282;28;20029;-88
2021/11/03 07:54:34;;;;;;;84.25;34.42;;;;;;;1.19;100.00;100255.91;5029999;28;20103;-76
2021/11/03 07:57:00;;;;;;;81.45;35.72;;;;;;;1.29;100.00;100259.66;5029490;28;20149;-76
2021/11/03 07:59:26;;;;;;;94.28;37.20;;;;;;;1.41;100.00;100255.44;5030044;28;20029;-85
2021/11/03 08:01:52;;;;;;;91.70;36.55;;;;;;;1.49;100.00;100258.41;5029919;28;20038;-80
2021/11/03 08:04:18;;;;;;;79.25;34.25;;;;;;;1.53;100.00;100262.53;5029038;28;20075;-81
2021/11/03 08:06:44;;;;;;;69.00;32.10;;;;;;;1.55;100.00;100259.81;5029835;28;20033;-80
2021/11/03 08:09:10;;;;;;;81.13;34.50;;;;;;;1.57;100.00;100266.66;5031308;28;20505;-83
2021/11/03 08:11:47;;;;;;;75.15;32.90;;;;;;;1.62;100.00;100270.78;5033851;28;20044;-81
2021/11/03 08:14:15;;;;;;;73.40;32.25;;;;;;;1.72;100.00;100275.34;5033390;28;20102;-79
2021/11/03 08:17:09;;;;;;;70.72;32.05;;;;;;;1.91;100.00;100274.19;5033695;28;20033;-81
2021/11/03 08:19:41;;;;;;;85.88;36.60;;;;;;;2.08;100.00;100276.56;5026578;28;20046;-83
2021/11/03 08:22:08;;;;;;;79.65;34.03;;;;;;;2.17;100.00;100276.94;5033150;28;20041;-82
2021/11/03 08:24:34;;;;;;;82.43;34.53;;;;;;;2.19;100.00;100273.25;5033517;28;20030;-80
2021/11/03 08:27:01;;;;;;;78.47;35.97;;;;;;;2.24;100.00;100279.06;5032654;28;20041;-77
2021/11/03 08:29:27;;;;;;;75.60;34.42;;;;;;;2.28;100.00;100275.31;5033140;28;20037;-78
2021/11/03 08:31:56;;;;;;;98.15;37.97;;;;;;;2.37;100.00;100286.97;5033098;28;20040;-84
2021/11/03 08:34:25;;;;;;;83.00;35.90;;;;;;;2.45;100.00;100294.38;5032832;28;20033;-77
2021/11/03 08:36:52;;;;;;;87.00;36.70;;;;;;;2.49;100.00;100293.22;5033110;28;20060;-76
2021/11/03 08:39:18;;;;;;;88.25;33.47;;;;;;;2.53;100.00;100293.88;5032516;28;20059;-79
2021/11/03 08:41:43;;;;;;;73.70;31.83;;;;;;;2.62;100.00;100298.50;5033772;28;20120;-77
2021/11/03 08:44:09;;;;;;;82.72;32.92;;;;;;;2.69;100.00;100297.16;5032490;28;20195;-78
2021/11/03 08:46:35;;;;;;;77.78;33.00;;;;;;;2.77;100.00;100305.38;5032951;28;20490;-75
2021/11/03 08:49:03;;;;;;;69.85;31.30;;;;;;;2.83;100.00;100302.31;5032692;28;20071;-76
2021/11/03 08:51:30;;;;;;;70.35;31.30;;;;;;;2.93;100.00;100312.25;5032455;28;20048;-74
2021/11/03 08:53:56;;;;;;;68.60;33.13;;;;;;;3.04;100.00;100304.47;5033087;28;20037;-87
2021/11/03 08:56:23;;;;;;;71.50;33.42;;;;;;;3.13;100.00;100306.47;5014586;28;20029;-80
2021/11/03 08:58:48;;;;;;;89.55;37.00;;;;;;;3.21;100.00;100303.34;5032501;28;20042;-79
2021/11/03 09:01:14;;;;;;;92.13;38.75;;;;;;;3.32;100.00;100306.06;5032281;28;20037;-80
2021/11/03 09:03:40;;;;;;;98.50;39.75;;;;;;;3.44;100.00;100307.00;5032503;28;20064;-80
2021/11/03 09:06:07;;;;;;;104.57;41.72;;;;;;;3.59;100.00;100309.53;5032183;28;20036;-81
2021/11/03 09:08:39;;;;;;;106.47;44.15;;;;;;;3.83;100.00;100310.41;5032662;28;20037;-78
2021/11/03 09:11:05;;;;;;;115.88;43.45;;;;;;;4.03;100.00;100316.06;5032081;28;20474;-80
2021/11/03 09:13:32;;;;;;;75.45;31.38;;;;;;;4.10;100.00;100313.84;5032119;28;20037;-79
2021/11/03 09:15:59;;;;;;;75.22;35.97;;;;;;;4.11;100.00;100311.09;5031807;28;20505;-76
2021/11/03 09:18:25;;;;;;;59.08;29.88;;;;;;;4.12;100.00;100318.06;5032075;28;20045;-79
2021/11/03 09:20:52;;;;;;;56.90;28.80;;;;;;;4.16;100.00;100322.13;5013731;28;20044;-81
2021/11/03 09:23:18;;;;;;;82.10;37.45;;;;;;;4.33;100.00;100320.94;5031916;28;20033;-81
2021/11/03 09:25:45;;;;;;;83.03;37.72;;;;;;;4.45;100.00;100313.06;5032094;28;20046;-79
2021/11/03 09:28:11;;;;;;;71.72;33.83;;;;;;;4.49;100.00;100314.53;5031565;28;20042;-76
2021/11/03 09:30:37;;;;;;;93.70;38.85;;;;;;;4.54;100.00;100321.16;5032332;28;20040;-81
2021/11/03 09:33:06;;;;;;;86.72;38.78;;;;;;;4.60;100.00;100319.84;5032131;28;20048;-82
2021/11/03 09:35:35;;;;;;;92.82;42.50;;;;;;;4.68;100.00;100321.91;5032245;28;20105;-78
2021/11/03 09:38:01;;;;;;;94.45;42.72;;;;;;;4.80;100.00;100328.06;5031867;28;20098;-80
2021/11/03 09:40:42;;;;;;;104.75;46.30;;;;;;;4.95;100.00;100324.28;5030944;28;20110;-78
2021/11/03 09:43:25;;;;;;;110.00;47.73;;;;;;;5.24;100.00;100321.22;5031616;28;20033;-76
2021/11/03 09:45:50;;;;;;;94.53;43.35;;;;;;;5.57;100.00;100323.09;5031819;28;20328;-80
2021/11/03 09:48:36;;;;;;;78.88;38.90;;;;;;;5.76;100.00;100325.13;5031432;28;20056;-77
2021/11/03 09:51:12;;;;;;;78.93;40.28;;;;;;;6.04;100.00;100322.13;5031782;28;20037;-78
2021/11/03 09:53:53;;;;;;;63.63;37.47;;;;;;;6.57;100.00;100318.75;5031883;28;20072;-76
2021/11/03 09:56:23;;;;;;;57.10;33.53;;;;;;;7.13;100.00;100328.22;5031261;28;20039;-78
2021/11/03 09:59:00;;;;;;;44.50;28.55;;;;;;;8.25;96.78;100320.34;5031754;28;20039;-79
2021/11/03 10:01:42;;;;;;;42.55;26.75;;;;;;;8.97;92.64;100318.28;5030917;28;20124;-80
2021/11/03 10:04:20;;;;;;;39.78;25.58;;;;;;;9.16;90.91;100320.09;5031293;28;20091;-78
2021/11/03 10:07:18;;;;;;;39.17;26.08;;;;;;;9.30;93.33;100316.13;5031938;28;20108;-82
2021/11/03 10:09:44;;;;;;;31.05;24.55;;;;;;;9.35;92.14;100327.19;5031402;28;20033;-80
2021/11/03 10:12:15;;;;;;;32.92;24.27;;;;;;;9.33;89.90;100327.31;5031038;28;20030;-80
2021/11/03 10:14:42;;;;;;;31.40;25.00;;;;;;;8.97;90.03;100328.91;5031464;28;20037;-81
2021/11/03 10:17:27;;;;;;;31.13;24.88;;;;;;;8.45;91.42;100332.69;5031293;28;20061;-82
2021/11/03 10:19:54;;;;;;;35.50;25.52;;;;;;;8.26;93.73;100332.63;5031376;28;20025;-78
2021/11/03 10:22:29;;;;;;;32.33;24.40;;;;;;;8.37;92.59;100337.78;5030719;28;20087;-84
2021/11/03 10:25:17;;;;;;;39.20;28.08;;;;;;;8.49;94.78;100337.72;5031150;28;20049;-79
2021/11/03 10:27:48;;;;;;;32.75;23.42;;;;;;;8.40;93.35;100344.63;5030847;28;20037;-77
2021/11/03 10:30:22;;;;;;;33.67;24.47;;;;;;;8.20;93.71;100341.13;5030654;28;20029;-78
2021/11/03 10:32:48;;;;;;;31.40;24.52;;;;;;;7.96;94.77;100347.59;5030756;28;20060;-81
2021/11/03 10:35:16;;;;;;;36.72;25.70;;;;;;;7.78;95.56;100344.75;5030474;28;20073;-78
2021/11/03 10:37:46;;;;;;;40.78;27.52;;;;;;;7.74;97.60;100349.44;5030767;28;20033;-78
2021/11/03 10:40:41;;;;;;;39.40;28.17;;;;;;;7.72;98.58;100345.28;5030037;28;20037;-77
2021/11/03 10:43:22;;;;;;;38.90;28.13;;;;;;;7.70;99.22;100339.25;5030879;28;20041;-83
2021/11/03 10:45:57;;;;;;;40.53;25.90;;;;;;;7.79;99.27;100337.63;5030546;28;20064;-79
2021/11/03 10:48:27;;;;;;;36.08;26.42;;;;;;;7.82;98.32;100334.72;5030112;28;20052;-82
2021/11/03 10:50:55;;;;;;;32.03;24.60;;;;;;;7.80;97.67;100336.66;5030133;28;20032;-81
2021/11/03 10:53:21;;;;;;;30.73;24.95;;;;;;;7.69;97.02;100335.78;5029907;28;20033;-77
2021/11/03 10:55:49;;;;;;;39.35;27.10;;;;;;;7.72;98.79;100342.63;5012812;28;20034;-82
2021/11/03 10:58:43;;;;;;;36.20;25.27;;;;;;;7.77;99.70;100338.59;5030001;28;20374;-77
2021/11/03 11:01:26;;;;;;;35.42;26.77;;;;;;;7.93;100.00;100327.50;5016906;28;20493;-83
2021/11/03 11:03:58;;;;;;;35.40;26.13;;;;;;;8.05;99.56;100328.25;5029933;28;20091;-81
2021/11/03 11:06:36;;;;;;;39.75;24.30;;;;;;;8.19;99.68;100326.19;5030040;28;20409;-83
2021/11/03 11:09:09;;;;;;;32.47;22.13;;;;;;;8.26;98.86;100319.38;5030641;28;20112;-80
2021/11/03 11:11:40;;;;;;;27.48;20.13;;;;;;;8.27;96.94;100324.53;5029850;28;20540;-78
2021/11/03 11:14:18;;;;;;;28.58;20.48;;;;;;;8.29;97.63;100321.75;5030111;28;20474;-80
2021/11/03 11:16:46;;;;;;;31.52;20.25;;;;;;;8.27;96.96;100323.66;5029952;28;20033;-79
2021/11/03 11:19:21;;;;;;;28.63;18.88;;;;;;;8.30;97.12;100315.47;5030231;28;20056;-79